sensor_id;sensor_type;location;lat;lon;timestamp;pressure;altitude;pressure_sealevel;temperature;humidity
65534;BME280;53640;55.838;37.184;2023-02-17T00:03:53;99876.34;;;-7.38;51.98
65534;BME280;53640;55.838;37.184;2023-02-17T00:06:21;99925.44;;;-7.08;52.09
65534;BME280;53640;55.838;37.184;2023-02-17T00:08:48;99898.66;;;-7.29;51.91
65534;BME280;53640;55.838;37.184;2023-02-17T00:11:15;99895.44;;;-7.34;52.13
65534;BME280;53640;55.838;37.184;2023-02-17T00:13:41;99948.84;;;-7.04;51.87
65534;BME280;53640;55.838;37.184;2023-02-17T00:16:10;99941.06;;;-7.05;51.86
65534;BME280;53640;55.838;37.184;2023-02-17T00:18:38;99941.72;;;-7.02;51.78
65534;BME280;53640;55.838;37.184;2023-02-17T00:21:17;99889.72;;;-7.27;51.28
65534;BME280;53640;55.838;37.184;2023-02-17T00:23:44;99909.84;;;-7.11;51.26
65534;BME280;53640;55.838;37.184;2023-02-17T00:26:12;99893.59;;;-7.18;51.29
65534;BME280;53640;55.838;37.184;2023-02-17T00:28:39;99918.78;;;-7.00;51.57
65534;BME280;53640;55.838;37.184;2023-02-17T00:31:07;99950.09;;;-6.81;50.89
65534;BME280;53640;55.838;37.184;2023-02-17T00:33:36;99871.13;;;-7.24;50.82
65534;BME280;53640;55.838;37.184;2023-02-17T00:36:05;99955.78;;;-6.73;50.76
65534;BME280;53640;55.838;37.184;2023-02-17T00:38:33;99914.09;;;-6.94;50.67
65534;BME280;53640;55.838;37.184;2023-02-17T00:41:00;99948.53;;;-6.69;50.84
65534;BME280;53640;55.838;37.184;2023-02-17T00:43:27;99941.31;;;-6.65;50.63
65534;BME280;53640;55.838;37.184;2023-02-17T00:45:54;99869.00;;;-7.03;50.75
65534;BME280;53640;55.838;37.184;2023-02-17T00:48:21;99876.03;;;-7.03;50.39
65534;BME280;53640;55.838;37.184;2023-02-17T00:50:49;99890.25;;;-6.91;50.36
65534;BME280;53640;55.838;37.184;2023-02-17T00:53:15;99936.66;;;-6.62;50.17
65534;BME280;53640;55.838;37.184;2023-02-17T00:55:42;99926.91;;;-6.60;50.38
65534;BME280;53640;55.838;37.184;2023-02-17T00:58:08;99850.38;;;-7.00;50.18
65534;BME280;53640;55.838;37.184;2023-02-17T01:00:35;99848.03;;;-7.04;50.12
65534;BME280;53640;55.838;37.184;2023-02-17T01:03:01;99885.06;;;-6.79;50.49
65534;BME280;53640;55.838;37.184;2023-02-17T01:05:28;99911.28;;;-6.63;50.60
65534;BME280;53640;55.838;37.184;2023-02-17T01:07:55;99873.88;;;-6.82;50.33
65534;BME280;53640;55.838;37.184;2023-02-17T01:10:22;99906.03;;;-6.63;50.22
65534;BME280;53640;55.838;37.184;2023-02-17T01:12:48;99921.44;;;-6.57;49.90
65534;BME280;53640;55.838;37.184;2023-02-17T01:15:15;99828.47;;;-7.14;50.23
65534;BME280;53640;55.838;37.184;2023-02-17T01:17:42;99898.31;;;-6.66;50.10
65534;BME280;53640;55.838;37.184;2023-02-17T01:20:08;99819.75;;;-7.15;49.80
65534;BME280;53640;55.838;37.184;2023-02-17T01:22:37;99868.81;;;-6.85;49.92
65534;BME280;53640;55.838;37.184;2023-02-17T01:25:04;99861.09;;;-6.88;50.62
65534;BME280;53640;55.838;37.184;2023-02-17T01:27:33;99876.41;;;-6.81;50.09
65534;BME280;53640;55.838;37.184;2023-02-17T01:29:59;99868.63;;;-6.82;50.14
65534;BME280;53640;55.838;37.184;2023-02-17T01:32:29;99927.38;;;-6.53;50.48
65534;BME280;53640;55.838;37.184;2023-02-17T01:34:58;99859.50;;;-6.91;50.68
65534;BME280;53640;55.838;37.184;2023-02-17T01:37:26;99873.88;;;-6.82;50.33
65534;BME280;53640;55.838;37.184;2023-02-17T01:39:54;99861.75;;;-6.85;50.32
65534;BME280;53640;55.838;37.184;2023-02-17T01:42:20;99918.34;;;-6.49;50.40
65534;BME280;53640;55.838;37.184;2023-02-17T01:50:16;99822.47;;;-7.16;50.58
65534;BME280;53640;55.838;37.184;2023-02-17T01:52:44;99819.38;;;-7.09;50.77
65534;BME280;53640;55.838;37.184;2023-02-17T01:55:14;99909.03;;;-6.55;50.35
65534;BME280;53640;55.838;37.184;2023-02-17T01:57:42;99885.91;;;-6.64;50.56
65534;BME280;53640;55.838;37.184;2023-02-17T02:00:13;99902.53;;;-6.63;50.47
65534;BME280;53640;55.838;37.184;2023-02-17T02:02:45;99879.81;;;-6.79;49.74
65534;BME280;53640;55.838;37.184;2023-02-17T02:05:15;99927.84;;;-6.61;50.15
65534;BME280;53640;55.838;37.184;2023-02-17T02:07:45;99854.91;;;-7.02;50.02
65534;BME280;53640;55.838;37.184;2023-02-17T02:10:13;99850.75;;;-7.06;50.28
65534;BME280;53640;55.838;37.184;2023-02-17T02:12:41;99862.78;;;-7.02;50.13
65534;BME280;53640;55.838;37.184;2023-02-17T02:15:11;99887.22;;;-6.85;50.45
65534;BME280;53640;55.838;37.184;2023-02-17T02:18:09;99914.03;;;-6.64;50.40
65534;BME280;53640;55.838;37.184;2023-02-17T02:21:07;99919.28;;;-6.64;50.63
65534;BME280;53640;55.838;37.184;2023-02-17T02:26:52;99913.72;;;-6.74;50.96
65534;BME280;53640;55.838;37.184;2023-02-17T02:30:01;99912.03;;;-6.75;50.96
65534;BME280;53640;55.838;37.184;2023-02-17T02:36:30;99871.81;;;-7.06;51.37
65534;BME280;53640;55.838;37.184;2023-02-17T02:38:45;99910.72;;;-6.97;51.43
65534;BME280;53640;55.838;37.184;2023-02-17T02:41:23;99899.44;;;-6.99;51.59
65534;BME280;53640;55.838;37.184;2023-02-17T02:43:51;99872.75;;;-7.21;51.45
65534;BME280;53640;55.838;37.184;2023-02-17T02:46:18;99912.44;;;-6.96;51.55
65534;BME280;53640;55.838;37.184;2023-02-17T02:48:46;99900.47;;;-7.01;51.37
65534;BME280;53640;55.838;37.184;2023-02-17T02:54:15;99916.34;;;-6.88;51.59
65534;BME280;53640;55.838;37.184;2023-02-17T03:05:15;99907.97;;;-7.09;52.32
65534;BME280;53640;55.838;37.184;2023-02-17T03:07:55;99921.22;;;-7.11;52.10
65534;BME280;53640;55.838;37.184;2023-02-17T03:10:25;99871.09;;;-7.38;52.15
65534;BME280;53640;55.838;37.184;2023-02-17T03:12:54;99898.56;;;-7.28;51.98
65534;BME280;53640;55.838;37.184;2023-02-17T03:15:33;99903.72;;;-7.26;51.49
65534;BME280;53640;55.838;37.184;2023-02-17T03:18:01;99922.88;;;-7.24;51.68
65534;BME280;53640;55.838;37.184;2023-02-17T03:20:52;99911.59;;;-7.26;51.74
65534;BME280;53640;55.838;37.184;2023-02-17T03:23:24;99889.59;;;-7.39;51.69
65534;BME280;53640;55.838;37.184;2023-02-17T03:25:51;99841.63;;;-7.73;51.73
65534;BME280;53640;55.838;37.184;2023-02-17T03:28:18;99922.50;;;-7.32;51.72
65534;BME280;53640;55.838;37.184;2023-02-17T03:30:45;99875.41;;;-7.51;51.54
65534;BME280;53640;55.838;37.184;2023-02-17T03:33:12;99860.25;;;-7.62;51.71
65534;BME280;53640;55.838;37.184;2023-02-17T03:35:41;99890.31;;;-7.52;52.05
65534;BME280;53640;55.838;37.184;2023-02-17T03:38:08;99897.94;;;-7.47;52.23
65534;BME280;53640;55.838;37.184;2023-02-17T03:40:35;99870.88;;;-7.79;52.48
65534;BME280;53640;55.838;37.184;2023-02-17T03:43:01;99883.94;;;-7.78;52.79
65534;BME280;53640;55.838;37.184;2023-02-17T03:45:29;99875.72;;;-7.87;52.83
65534;BME280;53640;55.838;37.184;2023-02-17T03:47:58;99854.91;;;-8.06;53.13
65534;BME280;53640;55.838;37.184;2023-02-17T03:50:25;99891.00;;;-7.94;53.10
65534;BME280;53640;55.838;37.184;2023-02-17T03:52:52;99853.84;;;-8.18;53.50
65534;BME280;53640;55.838;37.184;2023-02-17T03:55:18;99898.72;;;-7.91;53.59
65534;BME280;53640;55.838;37.184;2023-02-17T03:57:46;99895.78;;;-8.01;53.77
65534;BME280;53640;55.838;37.184;2023-02-17T04:00:13;99896.59;;;-8.00;53.72
65534;BME280;53640;55.838;37.184;2023-02-17T04:02:39;99856.91;;;-8.26;53.79
65534;BME280;53640;55.838;37.184;2023-02-17T04:05:06;99910.59;;;-8.00;54.05
65534;BME280;53640;55.838;37.184;2023-02-17T04:07:33;99851.22;;;-8.34;54.19
65534;BME280;53640;55.838;37.184;2023-02-17T04:10:01;99871.13;;;-8.30;54.52
65534;BME280;53640;55.838;37.184;2023-02-17T04:12:30;99899.72;;;-8.09;54.47
65534;BME280;53640;55.838;37.184;2023-02-17T04:14:57;99899.72;;;-8.09;54.73
65534;BME280;53640;55.838;37.184;2023-02-17T04:17:23;99858.06;;;-8.31;54.70
65534;BME280;53640;55.838;37.184;2023-02-17T04:19:53;99834.19;;;-8.43;54.64
65534;BME280;53640;55.838;37.184;2023-02-17T04:22:19;99879.75;;;-8.12;54.74
65534;BME280;53640;55.838;37.184;2023-02-17T04:24:48;99892.09;;;-7.98;54.45
65534;BME280;53640;55.838;37.184;2023-02-17T04:27:16;99876.72;;;-8.04;54.33
65534;BME280;53640;55.838;37.184;2023-02-17T04:29:42;99875.50;;;-7.99;54.39
65534;BME280;53640;55.838;37.184;2023-02-17T04:32:08;99909.84;;;-7.72;54.32
65534;BME280;53640;55.838;37.184;2023-02-17T04:34:36;99911.56;;;-7.71;54.28
65534;BME280;53640;55.838;37.184;2023-02-17T04:37:02;99911.19;;;-7.64;54.18
65534;BME280;53640;55.838;37.184;2023-02-17T04:39:29;99901.72;;;-7.67;54.35
65534;BME280;53640;55.838;37.184;2023-02-17T04:41:56;99915.44;;;-7.62;54.52
65534;BME280;53640;55.838;37.184;2023-02-17T04:44:22;99877.63;;;-7.89;54.59
65534;BME280;53640;55.838;37.184;2023-02-17T04:46:49;99807.78;;;-8.39;54.52
65534;BME280;53640;55.838;37.184;2023-02-17T04:49:15;99886.34;;;-7.89;54.40
65534;BME280;53640;55.838;37.184;2023-02-17T04:51:42;99921.81;;;-7.66;54.66
65534;BME280;53640;55.838;37.184;2023-02-17T04:54:10;99903.59;;;-7.69;54.80
65534;BME280;53640;55.838;37.184;2023-02-17T04:56:37;99905.28;;;-7.68;54.75
65534;BME280;53640;55.838;37.184;2023-02-17T04:59:03;99908.00;;;-7.70;54.52
65534;BME280;53640;55.838;37.184;2023-02-17T05:01:30;99868.88;;;-7.90;54.57
65534;BME280;53640;55.838;37.184;2023-02-17T05:03:56;99881.75;;;-7.85;54.77
65534;BME280;53640;55.838;37.184;2023-02-17T05:06:22;99919.19;;;-7.66;54.65
65534;BME280;53640;55.838;37.184;2023-02-17T05:08:49;99834.50;;;-8.17;54.86
65534;BME280;53640;55.838;37.184;2023-02-17T05:11:15;99900.47;;;-7.76;54.99
65534;BME280;53640;55.838;37.184;2023-02-17T05:13:42;99916.72;;;-7.69;54.92
65534;BME280;53640;55.838;37.184;2023-02-17T05:16:09;99902.91;;;-7.73;54.81
65534;BME280;53640;55.838;37.184;2023-02-17T05:18:35;99918.34;;;-7.66;54.75
65534;BME280;53640;55.838;37.184;2023-02-17T05:21:02;99924.28;;;-7.63;54.55
65534;BME280;53640;55.838;37.184;2023-02-17T05:23:30;99826.81;;;-8.20;54.63
65534;BME280;53640;55.838;37.184;2023-02-17T05:25:57;99854.66;;;-8.02;54.49
65534;BME280;53640;55.838;37.184;2023-02-17T05:28:23;99900.38;;;-7.74;54.56
65534;BME280;53640;55.838;37.184;2023-02-17T05:30:50;99900.84;;;-7.68;54.39
65534;BME280;53640;55.838;37.184;2023-02-17T05:33:16;99882.72;;;-7.72;54.21
65534;BME280;53640;55.838;37.184;2023-02-17T05:35:42;99942.03;;;-7.36;54.00
65534;BME280;53640;55.838;37.184;2023-02-17T05:38:09;99937.44;;;-7.33;54.06
65534;BME280;53640;55.838;37.184;2023-02-17T05:40:35;99851.41;;;-7.91;54.05
65534;BME280;53640;55.838;37.184;2023-02-17T05:43:02;99930.91;;;-7.41;53.85
65534;BME280;53640;55.838;37.184;2023-02-17T05:45:28;99943.34;;;-7.29;53.72
65534;BME280;53640;55.838;37.184;2023-02-17T05:47:54;99931.56;;;-7.38;53.80
65534;BME280;53640;55.838;37.184;2023-02-17T05:50:21;99869.63;;;-7.88;53.55
65534;BME280;53640;55.838;37.184;2023-02-17T05:52:48;99905.88;;;-7.63;53.48
65534;BME280;53640;55.838;37.184;2023-02-17T05:55:17;99902.91;;;-7.73;53.23
65534;BME280;53640;55.838;37.184;2023-02-17T05:57:43;99905.13;;;-7.81;53.47
65534;BME280;53640;55.838;37.184;2023-02-17T06:00:10;99934.44;;;-7.73;53.39
65534;BME280;53640;55.838;37.184;2023-02-17T06:02:41;99933.44;;;-7.70;53.54
65534;BME280;53640;55.838;37.184;2023-02-17T06:05:08;99949.44;;;-7.59;53.36
65534;BME280;53640;55.838;37.184;2023-02-17T06:07:34;99955.44;;;-7.57;53.43
65534;BME280;53640;55.838;37.184;2023-02-17T06:10:01;99927.34;;;-7.71;53.15
65534;BME280;53640;55.838;37.184;2023-02-17T06:12:27;99931.50;;;-7.66;52.97
65534;BME280;53640;55.838;37.184;2023-02-17T06:14:56;99943.16;;;-7.56;52.92
65534;BME280;53640;55.838;37.184;2023-02-17T06:17:23;99953.91;;;-7.45;52.56
65534;BME280;53640;55.838;37.184;2023-02-17T06:19:50;99800.75;;;-8.39;52.42
65534;BME280;53640;55.838;37.184;2023-02-17T06:22:17;99915.63;;;-7.65;52.18
65534;BME280;53640;55.838;37.184;2023-02-17T06:24:45;99950.16;;;-7.41;52.20
65534;BME280;53640;55.838;37.184;2023-02-17T06:27:12;99928.22;;;-7.56;52.12
65534;BME280;53640;55.838;37.184;2023-02-17T06:29:38;99914.09;;;-7.69;52.08
65534;BME280;53640;55.838;37.184;2023-02-17T06:32:05;99831.22;;;-8.21;52.19
65534;BME280;53640;55.838;37.184;2023-02-17T06:34:31;99911.38;;;-7.68;52.02
65534;BME280;53640;55.838;37.184;2023-02-17T06:37:01;99914.94;;;-7.69;51.89
65534;BME280;53640;55.838;37.184;2023-02-17T06:39:27;99943.31;;;-7.43;52.16
65534;BME280;53640;55.838;37.184;2023-02-17T06:41:54;99884.69;;;-7.76;52.03
65534;BME280;53640;55.838;37.184;2023-02-17T06:44:21;99824.38;;;-8.23;52.20
65534;BME280;53640;55.838;37.184;2023-02-17T06:46:48;99924.69;;;-7.55;52.10
65534;BME280;53640;55.838;37.184;2023-02-17T06:49:16;99852.44;;;-7.94;52.26
65534;BME280;53640;55.838;37.184;2023-02-17T06:51:44;99891.41;;;-7.70;52.26
65534;BME280;53640;55.838;37.184;2023-02-17T06:54:16;99873.25;;;-7.75;52.26
65534;BME280;53640;55.838;37.184;2023-02-17T06:56:43;99857.75;;;-7.79;52.22
65534;BME280;53640;55.838;37.184;2023-02-17T06:59:11;99757.63;;;-8.35;52.22
65534;BME280;53640;55.838;37.184;2023-02-17T07:01:41;99800.53;;;-8.04;52.17
65534;BME280;53640;55.838;37.184;2023-02-17T07:04:09;99953.72;;;-7.12;52.11
65534;BME280;53640;55.838;37.184;2023-02-17T07:06:41;99773.38;;;-8.19;51.86
65534;BME280;53640;55.838;37.184;2023-02-17T07:09:15;99871.25;;;-7.55;52.10
65534;BME280;53640;55.838;37.184;2023-02-17T07:12:17;99937.66;;;-7.07;51.98
65534;BME280;53640;55.838;37.184;2023-02-17T07:15:08;99814.84;;;-7.80;52.21
65534;BME280;53640;55.838;37.184;2023-02-17T07:18:13;99824.06;;;-7.73;52.31
65534;BME280;53640;55.838;37.184;2023-02-17T07:24:57;99753.72;;;-8.12;52.58
65534;BME280;53640;55.838;37.184;2023-02-17T07:27:23;99801.06;;;-7.83;52.38
65534;BME280;53640;55.838;37.184;2023-02-17T07:30:23;99771.09;;;-7.95;52.40
65534;BME280;53640;55.838;37.184;2023-02-17T07:32:57;99821.50;;;-7.58;52.85
65534;BME280;53640;55.838;37.184;2023-02-17T07:35:23;99917.28;;;-6.89;52.90
65534;BME280;53640;55.838;37.184;2023-02-17T07:37:49;99770.75;;;-7.75;52.75
65534;BME280;53640;55.838;37.184;2023-02-17T07:40:16;99766.97;;;-7.55;52.61
65534;BME280;53640;55.838;37.184;2023-02-17T07:42:43;99934.50;;;-6.55;52.64
65534;BME280;53640;55.838;37.184;2023-02-17T07:45:09;99817.31;;;-7.18;52.44
65534;BME280;53640;55.838;37.184;2023-02-17T07:47:36;99876.69;;;-6.85;52.64
65534;BME280;53640;55.838;37.184;2023-02-17T07:50:03;99944.38;;;-6.44;52.89
65534;BME280;53640;55.838;37.184;2023-02-17T07:55:22;99919.84;;;-6.31;53.16
65534;BME280;53640;55.838;37.184;2023-02-17T07:57:49;99867.28;;;-6.61;52.54
65534;BME280;53640;55.838;37.184;2023-02-17T08:00:16;99842.19;;;-6.81;52.04
65534;BME280;53640;55.838;37.184;2023-02-17T08:02:43;99924.03;;;-6.28;52.36
65534;BME280;53640;55.838;37.184;2023-02-17T08:05:14;99908.66;;;-6.34;52.54
65534;BME280;53640;55.838;37.184;2023-02-17T08:07:40;99882.97;;;-6.45;52.53
65534;BME280;53640;55.838;37.184;2023-02-17T08:10:09;99927.63;;;-6.15;52.64
65534;BME280;53640;55.838;37.184;2023-02-17T08:12:54;99856.47;;;-6.56;53.31
65534;BME280;53640;55.838;37.184;2023-02-17T08:15:39;99930.13;;;-6.13;52.23
65534;BME280;53640;55.838;37.184;2023-02-17T08:18:06;99918.88;;;-6.15;52.44
65534;BME280;53640;55.838;37.184;2023-02-17T08:20:33;99900.25;;;-6.27;52.53
65534;BME280;53640;55.838;37.184;2023-02-17T08:22:59;99929.75;;;-6.07;52.32
65534;BME280;53640;55.838;37.184;2023-02-17T08:25:26;99916.97;;;-6.13;52.10
65534;BME280;53640;55.838;37.184;2023-02-17T08:27:52;99927.13;;;-6.07;51.80
65534;BME280;53640;55.838;37.184;2023-02-17T08:30:20;99911.16;;;-6.18;52.03
65534;BME280;53640;55.838;37.184;2023-02-17T08:32:47;99847.97;;;-6.47;52.16
65534;BME280;53640;55.838;37.184;2023-02-17T08:35:14;99918.84;;;-6.01;52.16
65534;BME280;53640;55.838;37.184;2023-02-17T08:37:42;99926.44;;;-5.96;51.88
65534;BME280;53640;55.838;37.184;2023-02-17T08:40:09;99861.13;;;-6.33;51.81
65534;BME280;53640;55.838;37.184;2023-02-17T08:42:36;99901.91;;;-6.11;51.40
65534;BME280;53640;55.838;37.184;2023-02-17T08:45:04;99887.31;;;-6.17;51.43
65534;BME280;53640;55.838;37.184;2023-02-17T08:47:33;99884.63;;;-6.15;51.98
65534;BME280;53640;55.838;37.184;2023-02-17T08:50:01;99901.44;;;-6.04;52.04
65534;BME280;53640;55.838;37.184;2023-02-17T08:52:30;99913.81;;;-5.91;51.89
65534;BME280;53640;55.838;37.184;2023-02-17T08:54:56;99921.31;;;-5.85;52.04
65534;BME280;53640;55.838;37.184;2023-02-17T08:57:23;99920.56;;;-5.87;51.74
65534;BME280;53640;55.838;37.184;2023-02-17T08:59:49;99907.81;;;-5.93;51.44
65534;BME280;53640;55.838;37.184;2023-02-17T09:02:16;99907.88;;;-5.95;51.57
65534;BME280;53640;55.838;37.184;2023-02-17T09:04:43;99899.31;;;-5.99;51.79
65534;BME280;53640;55.838;37.184;2023-02-17T09:07:11;99922.06;;;-5.83;51.93
65534;BME280;53640;55.838;37.184;2023-02-17T09:09:39;99898.94;;;-5.92;51.94
65534;BME280;53640;55.838;37.184;2023-02-17T09:12:06;99895.16;;;-5.88;51.84
65534;BME280;53640;55.838;37.184;2023-02-17T09:14:32;99893.47;;;-5.89;51.66
65534;BME280;53640;55.838;37.184;2023-02-17T09:16:59;99908.69;;;-5.80;51.60
65534;BME280;53640;55.838;37.184;2023-02-17T09:19:26;99885.22;;;-5.97;51.74
65534;BME280;53640;55.838;37.184;2023-02-17T09:21:52;99901.78;;;-5.95;51.78
65534;BME280;53640;55.838;37.184;2023-02-17T09:24:19;99896.50;;;-5.95;51.99
65534;BME280;53640;55.838;37.184;2023-02-17T09:26:45;99885.22;;;-5.97;51.76
65534;BME280;53640;55.838;37.184;2023-02-17T09:29:11;99901.38;;;-5.89;51.78
65534;BME280;53640;55.838;37.184;2023-02-17T09:31:38;99889.13;;;-5.90;51.53
65534;BME280;53640;55.838;37.184;2023-02-17T09:34:04;99905.09;;;-5.79;52.05
65534;BME280;53640;55.838;37.184;2023-02-17T09:36:33;99891.50;;;-5.86;51.33
65534;BME280;53640;55.838;37.184;2023-02-17T09:39:03;99903.53;;;-5.82;51.74
65534;BME280;53640;55.838;37.184;2023-02-17T09:41:48;99833.53;;;-6.13;51.52
65534;BME280;53640;55.838;37.184;2023-02-17T09:44:46;99893.06;;;-5.83;51.53
65534;BME280;53640;55.838;37.184;2023-02-17T09:47:49;99866.88;;;-5.99;51.51
65534;BME280;53640;55.838;37.184;2023-02-17T09:54:08;99873.09;;;-6.00;51.53
65534;BME280;53640;55.838;37.184;2023-02-17T10:00:32;99826.38;;;-6.25;52.55
65534;BME280;53640;55.838;37.184;2023-02-17T10:03:53;99898.91;;;-5.78;52.11
65534;BME280;53640;55.838;37.184;2023-02-17T10:07:17;99878.97;;;-5.82;52.36
65534;BME280;53640;55.838;37.184;2023-02-17T10:10:38;99821.19;;;-6.12;52.28
65534;BME280;53640;55.838;37.184;2023-02-17T10:21:31;99864.66;;;-5.65;51.65
65534;BME280;53640;55.838;37.184;2023-02-17T10:24:04;99874.03;;;-5.74;51.72
65534;BME280;53640;55.838;37.184;2023-02-17T10:27:11;99719.94;;;-6.62;52.47
65534;BME280;53640;55.838;37.184;2023-02-17T10:30:00;99814.28;;;-6.01;51.91
65534;BME280;53640;55.838;37.184;2023-02-17T10:32:36;99853.00;;;-5.76;51.38
65534;BME280;53640;55.838;37.184;2023-02-17T10:35:15;99855.44;;;-5.72;52.01
65534;BME280;53640;55.838;37.184;2023-02-17T10:40:19;99814.50;;;-5.91;52.73
65534;BME280;53640;55.838;37.184;2023-02-17T10:42:56;99857.59;;;-5.65;52.45
65534;BME280;53640;55.838;37.184;2023-02-17T10:45:42;99845.16;;;-5.63;52.12
65534;BME280;53640;55.838;37.184;2023-02-17T10:48:17;99774.09;;;-6.04;51.70
65534;BME280;53640;55.838;37.184;2023-02-17T10:50:46;99810.50;;;-5.84;52.02
65534;BME280;53640;55.838;37.184;2023-02-17T10:53:22;99834.03;;;-5.68;51.62
65534;BME280;53640;55.838;37.184;2023-02-17T10:58:39;99841.44;;;-5.60;51.05
65534;BME280;53640;55.838;37.184;2023-02-17T11:01:12;99817.50;;;-5.70;52.33
65534;BME280;53640;55.838;37.184;2023-02-17T11:03:40;99841.16;;;-5.56;51.78
65534;BME280;53640;55.838;37.184;2023-02-17T11:06:19;99842.84;;;-5.55;51.78
65534;BME280;53640;55.838;37.184;2023-02-17T11:08:51;99825.34;;;-5.56;51.91
65534;BME280;53640;55.838;37.184;2023-02-17T11:11:24;99833.66;;;-5.49;51.56
65534;BME280;53640;55.838;37.184;2023-02-17T11:19:06;99822.81;;;-5.44;50.86
65534;BME280;53640;55.838;37.184;2023-02-17T11:21:50;99814.47;;;-5.51;51.02
65534;BME280;53640;55.838;37.184;2023-02-17T11:24:17;99785.56;;;-5.65;51.28
65534;BME280;53640;55.838;37.184;2023-02-17T11:27:02;99816.28;;;-5.39;51.61
65534;BME280;53640;55.838;37.184;2023-02-17T11:29:35;99756.84;;;-5.83;50.89
65534;BME280;53640;55.838;37.184;2023-02-17T11:32:10;99807.28;;;-5.49;51.29
65534;BME280;53640;55.838;37.184;2023-02-17T11:34:40;99818.81;;;-5.37;51.37
65534;BME280;53640;55.838;37.184;2023-02-17T11:39:42;99805.63;;;-5.37;50.51
65534;BME280;53640;55.838;37.184;2023-02-17T11:42:30;99801.59;;;-5.43;50.77
65534;BME280;53640;55.838;37.184;2023-02-17T11:45:33;99628.06;;;-6.53;50.93
65534;BME280;53640;55.838;37.184;2023-02-17T11:55:53;99801.28;;;-5.51;50.88
65534;BME280;53640;55.838;37.184;2023-02-17T12:14:27;99775.22;;;-5.30;51.91
65534;BME280;53640;55.838;37.184;2023-02-17T12:20:01;99719.84;;;-5.68;52.22
65534;BME280;53640;55.838;37.184;2023-02-17T12:25:27;99732.72;;;-5.51;50.84
65534;BME280;53640;55.838;37.184;2023-02-17T12:31:32;99765.41;;;-5.28;51.27
65534;BME280;53640;55.838;37.184;2023-02-17T12:34:33;99765.63;;;-5.31;50.88
65534;BME280;53640;55.838;37.184;2023-02-17T12:37:00;99759.81;;;-5.36;51.44
65534;BME280;53640;55.838;37.184;2023-02-17T12:39:37;99733.03;;;-5.56;51.72
65534;BME280;53640;55.838;37.184;2023-02-17T12:42:17;99754.88;;;-5.41;51.76
65534;BME280;53640;55.838;37.184;2023-02-17T12:44:50;99722.38;;;-5.67;51.74
65534;BME280;53640;55.838;37.184;2023-02-17T12:57:03;99770.59;;;-5.39;51.08
65534;BME280;53640;55.838;37.184;2023-02-17T12:59:40;99716.03;;;-5.77;51.35
65534;BME280;53640;55.838;37.184;2023-02-17T13:02:22;99751.91;;;-5.62;51.21
65534;BME280;53640;55.838;37.184;2023-02-17T13:05:05;99739.25;;;-5.57;51.53
65534;BME280;53640;55.838;37.184;2023-02-17T13:10:38;99741.47;;;-5.51;51.61
65534;BME280;53640;55.838;37.184;2023-02-17T13:13:11;99690.63;;;-5.78;51.25
65534;BME280;53640;55.838;37.184;2023-02-17T13:15:41;99724.69;;;-5.62;51.18
65534;BME280;53640;55.838;37.184;2023-02-17T13:18:12;99704.75;;;-5.66;51.55
65534;BME280;53640;55.838;37.184;2023-02-17T13:21:00;99747.59;;;-5.37;51.18
65534;BME280;53640;55.838;37.184;2023-02-17T13:23:41;99706.56;;;-5.67;51.85
65534;BME280;53640;55.838;37.184;2023-02-17T13:26:22;99750.22;;;-5.37;51.86
65534;BME280;53640;55.838;37.184;2023-02-17T13:28:52;99732.06;;;-5.42;51.83
65534;BME280;53640;55.838;37.184;2023-02-17T13:31:23;99645.72;;;-5.89;51.97
65534;BME280;53640;55.838;37.184;2023-02-17T13:33:54;99736.41;;;-5.41;52.68
65534;BME280;53640;55.838;37.184;2023-02-17T13:38:57;99751.91;;;-5.36;52.36
65534;BME280;53640;55.838;37.184;2023-02-17T13:41:27;99733.16;;;-5.44;52.67
65534;BME280;53640;55.838;37.184;2023-02-17T13:43:55;99739.78;;;-5.39;52.59
65534;BME280;53640;55.838;37.184;2023-02-17T13:46:24;99718.56;;;-5.50;52.45
65534;BME280;53640;55.838;37.184;2023-02-17T13:49:05;99737.25;;;-5.40;51.99
65534;BME280;53640;55.838;37.184;2023-02-17T13:51:32;99710.47;;;-5.60;51.92
65534;BME280;53640;55.838;37.184;2023-02-17T13:54:07;99681.66;;;-5.76;52.37
65534;BME280;53640;55.838;37.184;2023-02-17T13:56:33;99699.56;;;-5.68;52.36
65534;BME280;53640;55.838;37.184;2023-02-17T13:59:22;99714.28;;;-5.64;52.67
65534;BME280;53640;55.838;37.184;2023-02-17T14:01:50;99714.56;;;-5.68;52.62
65534;BME280;53640;55.838;37.184;2023-02-17T14:04:30;99707.38;;;-5.79;51.84
65534;BME280;53640;55.838;37.184;2023-02-17T14:06:58;99723.00;;;-5.76;52.48
65534;BME280;53640;55.838;37.184;2023-02-17T14:09:33;99629.78;;;-6.26;52.37
65534;BME280;53640;55.838;37.184;2023-02-17T14:12:06;99696.44;;;-5.86;52.20
65534;BME280;53640;55.838;37.184;2023-02-17T14:14:35;99634.41;;;-6.30;52.52
65534;BME280;53640;55.838;37.184;2023-02-17T14:17:12;99699.69;;;-5.95;52.49
65534;BME280;53640;55.838;37.184;2023-02-17T14:19:44;99707.81;;;-5.85;52.29
65534;BME280;53640;55.838;37.184;2023-02-17T14:22:31;99701.91;;;-5.89;52.09
65534;BME280;53640;55.838;37.184;2023-02-17T14:25:11;99714.88;;;-5.86;52.62
65534;BME280;53640;55.838;37.184;2023-02-17T14:27:41;99658.03;;;-6.15;52.65
65534;BME280;53640;55.838;37.184;2023-02-17T14:30:34;99700.22;;;-5.90;52.50
65534;BME280;53640;55.838;37.184;2023-02-17T14:33:21;99717.31;;;-5.83;52.69
65534;BME280;53640;55.838;37.184;2023-02-17T14:38:38;99713.81;;;-5.83;52.64
65534;BME280;53640;55.838;37.184;2023-02-17T14:41:06;99695.03;;;-5.91;52.72
65534;BME280;53640;55.838;37.184;2023-02-17T14:43:37;99672.88;;;-6.02;52.65
65534;BME280;53640;55.838;37.184;2023-02-17T14:46:03;99700.94;;;-5.88;52.76
65534;BME280;53640;55.838;37.184;2023-02-17T14:48:31;99656.38;;;-6.16;52.88
65534;BME280;53640;55.838;37.184;2023-02-17T14:51:36;99710.03;;;-5.79;53.00
65534;BME280;53640;55.838;37.184;2023-02-17T14:55:21;99707.19;;;-5.76;52.95
65534;BME280;53640;55.838;37.184;2023-02-17T15:01:01;99673.00;;;-6.03;52.98
65534;BME280;53640;55.838;37.184;2023-02-17T15:03:31;99679.56;;;-5.96;52.86
65534;BME280;53640;55.838;37.184;2023-02-17T15:06:52;99640.97;;;-6.23;52.75
65534;BME280;53640;55.838;37.184;2023-02-17T15:09:47;99711.41;;;-5.74;52.90
65534;BME280;53640;55.838;37.184;2023-02-17T15:12:19;99717.63;;;-5.75;53.32